sensor_id;sensor_type;location;lat;lon;timestamp;P1;durP1;ratioP1;P2;durP2;ratioP2
4027;SDS011;2028;51.346;12.396;2022-08-19T00:01:26;20.83;;;19.03;;
4027;SDS011;2028;51.346;12.396;2022-08-19T00:05:10;20.00;;;18.20;;
4027;SDS011;2028;51.346;12.396;2022-08-19T00:07:37;20.63;;;18.77;;
4027;SDS011;2028;51.346;12.396;2022-08-19T00:10:05;20.43;;;18.67;;
4027;SDS011;2028;51.346;12.396;2022-08-19T00:12:31;22.87;;;20.77;;
4027;SDS011;2028;51.346;12.396;2022-08-19T00:14:58;21.40;;;19.50;;
4027;SDS011;2028;51.346;12.396;2022-08-19T00:17:24;22.03;;;20.03;;
4027;SDS011;2028;51.346;12.396;2022-08-19T00:19:51;21.87;;;20.07;;
4027;SDS011;2028;51.346;12.396;2022-08-19T00:22:16;20.67;;;18.87;;
4027;SDS011;2028;51.346;12.396;2022-08-19T00:24:43;21.40;;;19.43;;
4027;SDS011;2028;51.346;12.396;2022-08-19T00:27:11;20.60;;;18.80;;
4027;SDS011;2028;51.346;12.396;2022-08-19T00:29:37;21.40;;;19.47;;
4027;SDS011;2028;51.346;12.396;2022-08-19T00:34:49;21.97;;;20.07;;
4027;SDS011;2028;51.346;12.396;2022-08-19T00:37:18;20.77;;;18.97;;
4027;SDS011;2028;51.346;12.396;2022-08-19T00:39:47;22.13;;;20.03;;
4027;SDS011;2028;51.346;12.396;2022-08-19T00:42:14;21.03;;;19.17;;
4027;SDS011;2028;51.346;12.396;2022-08-19T00:44:40;23.47;;;21.30;;
4027;SDS011;2028;51.346;12.396;2022-08-19T00:47:08;23.03;;;21.00;;
4027;SDS011;2028;51.346;12.396;2022-08-19T00:49:40;21.80;;;19.90;;
4027;SDS011;2028;51.346;12.396;2022-08-19T00:52:11;22.13;;;20.23;;
4027;SDS011;2028;51.346;12.396;2022-08-19T00:54:40;23.63;;;21.33;;
4027;SDS011;2028;51.346;12.396;2022-08-19T00:57:07;22.47;;;20.50;;
4027;SDS011;2028;51.346;12.396;2022-08-19T00:59:35;23.13;;;20.97;;
4027;SDS011;2028;51.346;12.396;2022-08-19T01:02:03;23.67;;;21.67;;
4027;SDS011;2028;51.346;12.396;2022-08-19T01:04:30;25.17;;;22.87;;
4027;SDS011;2028;51.346;12.396;2022-08-19T01:06:56;24.30;;;22.17;;
4027;SDS011;2028;51.346;12.396;2022-08-19T01:09:23;24.00;;;21.90;;
4027;SDS011;2028;51.346;12.396;2022-08-19T01:11:50;24.67;;;22.57;;
4027;SDS011;2028;51.346;12.396;2022-08-19T01:14:16;25.00;;;22.60;;
4027;SDS011;2028;51.346;12.396;2022-08-19T01:16:42;25.87;;;23.57;;
4027;SDS011;2028;51.346;12.396;2022-08-19T01:19:11;24.73;;;22.43;;
4027;SDS011;2028;51.346;12.396;2022-08-19T01:21:52;24.50;;;22.40;;
4027;SDS011;2028;51.346;12.396;2022-08-19T01:24:26;25.13;;;22.83;;
4027;SDS011;2028;51.346;12.396;2022-08-19T01:26:52;25.37;;;22.97;;
4027;SDS011;2028;51.346;12.396;2022-08-19T01:29:19;25.47;;;23.13;;
4027;SDS011;2028;51.346;12.396;2022-08-19T01:31:45;25.80;;;23.60;;
4027;SDS011;2028;51.346;12.396;2022-08-19T01:34:12;25.73;;;23.43;;
4027;SDS011;2028;51.346;12.396;2022-08-19T01:36:40;26.77;;;24.33;;
4027;SDS011;2028;51.346;12.396;2022-08-19T01:39:11;26.13;;;23.83;;
4027;SDS011;2028;51.346;12.396;2022-08-19T01:41:38;27.30;;;24.90;;
4027;SDS011;2028;51.346;12.396;2022-08-19T01:44:05;27.67;;;25.23;;
4027;SDS011;2028;51.346;12.396;2022-08-19T01:46:32;28.93;;;26.33;;
4027;SDS011;2028;51.346;12.396;2022-08-19T01:48:59;27.50;;;24.97;;
4027;SDS011;2028;51.346;12.396;2022-08-19T01:51:25;28.73;;;26.13;;
4027;SDS011;2028;51.346;12.396;2022-08-19T01:53:52;29.33;;;26.83;;
4027;SDS011;2028;51.346;12.396;2022-08-19T01:56:19;29.30;;;26.73;;
4027;SDS011;2028;51.346;12.396;2022-08-19T01:58:49;29.00;;;26.40;;
4027;SDS011;2028;51.346;12.396;2022-08-19T02:01:17;28.60;;;26.17;;
4027;SDS011;2028;51.346;12.396;2022-08-19T02:03:43;28.93;;;26.43;;
4027;SDS011;2028;51.346;12.396;2022-08-19T02:06:11;29.30;;;26.70;;
4027;SDS011;2028;51.346;12.396;2022-08-19T02:08:38;29.93;;;27.10;;
4027;SDS011;2028;51.346;12.396;2022-08-19T02:11:05;29.50;;;26.77;;
4027;SDS011;2028;51.346;12.396;2022-08-19T02:13:32;29.67;;;26.87;;
4027;SDS011;2028;51.346;12.396;2022-08-19T02:15:58;28.10;;;25.67;;
4027;SDS011;2028;51.346;12.396;2022-08-19T02:18:25;30.13;;;27.40;;
4027;SDS011;2028;51.346;12.396;2022-08-19T02:20:52;29.97;;;27.37;;
4027;SDS011;2028;51.346;12.396;2022-08-19T02:23:18;29.10;;;26.47;;
4027;SDS011;2028;51.346;12.396;2022-08-19T02:25:45;29.00;;;26.33;;
4027;SDS011;2028;51.346;12.396;2022-08-19T02:28:12;29.43;;;26.93;;
4027;SDS011;2028;51.346;12.396;2022-08-19T02:30:38;26.90;;;24.50;;
4027;SDS011;2028;51.346;12.396;2022-08-19T02:33:06;27.93;;;25.47;;
4027;SDS011;2028;51.346;12.396;2022-08-19T02:35:32;26.40;;;24.20;;
4027;SDS011;2028;51.346;12.396;2022-08-19T02:37:59;27.33;;;24.87;;
4027;SDS011;2028;51.346;12.396;2022-08-19T02:40:48;27.87;;;25.47;;
4027;SDS011;2028;51.346;12.396;2022-08-19T02:43:15;27.67;;;25.30;;
4027;SDS011;2028;51.346;12.396;2022-08-19T02:45:41;27.87;;;25.13;;
4027;SDS011;2028;51.346;12.396;2022-08-19T02:48:08;25.67;;;23.47;;
4027;SDS011;2028;51.346;12.396;2022-08-19T02:50:38;24.93;;;22.63;;
4027;SDS011;2028;51.346;12.396;2022-08-19T02:53:04;23.83;;;21.83;;
4027;SDS011;2028;51.346;12.396;2022-08-19T02:55:32;26.17;;;23.87;;
4027;SDS011;2028;51.346;12.396;2022-08-19T02:57:59;22.77;;;20.87;;
4027;SDS011;2028;51.346;12.396;2022-08-19T03:00:26;23.40;;;21.50;;
4027;SDS011;2028;51.346;12.396;2022-08-19T03:02:52;22.20;;;20.40;;
4027;SDS011;2028;51.346;12.396;2022-08-19T03:05:19;24.47;;;22.33;;
4027;SDS011;2028;51.346;12.396;2022-08-19T03:07:45;24.13;;;22.03;;
4027;SDS011;2028;51.346;12.396;2022-08-19T03:10:12;24.57;;;22.47;;
4027;SDS011;2028;51.346;12.396;2022-08-19T03:12:38;23.53;;;21.43;;
4027;SDS011;2028;51.346;12.396;2022-08-19T03:15:05;23.57;;;21.57;;
4027;SDS011;2028;51.346;12.396;2022-08-19T03:17:33;23.20;;;21.10;;
4027;SDS011;2028;51.346;12.396;2022-08-19T03:19:59;21.63;;;19.83;;
4027;SDS011;2028;51.346;12.396;2022-08-19T03:22:26;21.07;;;19.30;;
4027;SDS011;2028;51.346;12.396;2022-08-19T03:24:52;20.47;;;18.57;;
4027;SDS011;2028;51.346;12.396;2022-08-19T03:27:18;18.73;;;17.27;;
4027;SDS011;2028;51.346;12.396;2022-08-19T03:29:46;18.57;;;17.03;;
4027;SDS011;2028;51.346;12.396;2022-08-19T03:32:12;19.60;;;17.90;;
4027;SDS011;2028;51.346;12.396;2022-08-19T03:34:39;20.17;;;18.37;;
4027;SDS011;2028;51.346;12.396;2022-08-19T03:37:07;19.87;;;18.13;;
4027;SDS011;2028;51.346;12.396;2022-08-19T03:39:35;18.77;;;17.20;;
4027;SDS011;2028;51.346;12.396;2022-08-19T03:42:02;18.17;;;16.50;;
4027;SDS011;2028;51.346;12.396;2022-08-19T03:44:29;17.50;;;16.00;;
4027;SDS011;2028;51.346;12.396;2022-08-19T03:46:56;16.10;;;14.73;;
4027;SDS011;2028;51.346;12.396;2022-08-19T03:49:23;17.57;;;16.07;;
4027;SDS011;2028;51.346;12.396;2022-08-19T03:51:50;15.43;;;14.23;;
4027;SDS011;2028;51.346;12.396;2022-08-19T03:54:18;20.00;;;18.30;;
4027;SDS011;2028;51.346;12.396;2022-08-19T03:56:45;17.37;;;15.87;;
4027;SDS011;2028;51.346;12.396;2022-08-19T03:59:14;16.97;;;15.57;;
4027;SDS011;2028;51.346;12.396;2022-08-19T04:01:43;17.43;;;16.03;;
4027;SDS011;2028;51.346;12.396;2022-08-19T04:04:09;17.23;;;15.63;;
4027;SDS011;2028;51.346;12.396;2022-08-19T04:06:36;18.27;;;16.47;;
4027;SDS011;2028;51.346;12.396;2022-08-19T04:09:04;17.43;;;15.83;;
4027;SDS011;2028;51.346;12.396;2022-08-19T04:11:34;17.13;;;15.83;;
4027;SDS011;2028;51.346;12.396;2022-08-19T04:14:04;17.80;;;16.30;;
4027;SDS011;2028;51.346;12.396;2022-08-19T04:16:30;15.47;;;14.27;;
4027;SDS011;2028;51.346;12.396;2022-08-19T04:18:56;16.00;;;14.63;;
4027;SDS011;2028;51.346;12.396;2022-08-19T04:21:26;17.07;;;15.57;;
4027;SDS011;2028;51.346;12.396;2022-08-19T04:23:53;16.57;;;15.23;;
4027;SDS011;2028;51.346;12.396;2022-08-19T04:26:25;18.73;;;17.13;;
4027;SDS011;2028;51.346;12.396;2022-08-19T04:28:51;19.53;;;17.73;;
4027;SDS011;2028;51.346;12.396;2022-08-19T04:31:20;20.20;;;18.60;;
4027;SDS011;2028;51.346;12.396;2022-08-19T04:33:47;21.20;;;19.40;;
4027;SDS011;2028;51.346;12.396;2022-08-19T04:36:17;19.70;;;18.00;;
4027;SDS011;2028;51.346;12.396;2022-08-19T04:38:46;18.50;;;17.00;;
4027;SDS011;2028;51.346;12.396;2022-08-19T04:41:13;19.93;;;18.33;;
4027;SDS011;2028;51.346;12.396;2022-08-19T04:43:58;23.33;;;21.23;;
4027;SDS011;2028;51.346;12.396;2022-08-19T04:46:25;21.03;;;19.10;;
4027;SDS011;2028;51.346;12.396;2022-08-19T04:49:01;23.43;;;21.43;;
4027;SDS011;2028;51.346;12.396;2022-08-19T04:51:27;24.43;;;22.33;;
4027;SDS011;2028;51.346;12.396;2022-08-19T04:53:56;22.13;;;20.23;;
4027;SDS011;2028;51.346;12.396;2022-08-19T04:56:23;24.03;;;22.13;;
4027;SDS011;2028;51.346;12.396;2022-08-19T04:58:51;23.33;;;21.43;;
4027;SDS011;2028;51.346;12.396;2022-08-19T05:01:21;24.33;;;22.20;;
4027;SDS011;2028;51.346;12.396;2022-08-19T05:03:48;24.50;;;22.40;;
4027;SDS011;2028;51.346;12.396;2022-08-19T05:06:15;24.30;;;22.23;;
4027;SDS011;2028;51.346;12.396;2022-08-19T05:08:42;25.43;;;23.13;;
4027;SDS011;2028;51.346;12.396;2022-08-19T05:11:20;25.00;;;22.90;;
4027;SDS011;2028;51.346;12.396;2022-08-19T05:13:47;27.63;;;25.33;;
4027;SDS011;2028;51.346;12.396;2022-08-19T05:16:14;27.57;;;25.00;;
4027;SDS011;2028;51.346;12.396;2022-08-19T05:18:42;29.87;;;27.30;;
4027;SDS011;2028;51.346;12.396;2022-08-19T05:21:27;28.97;;;26.27;;
4027;SDS011;2028;51.346;12.396;2022-08-19T05:24:12;28.30;;;25.80;;
4027;SDS011;2028;51.346;12.396;2022-08-19T05:26:39;30.13;;;27.60;;
4027;SDS011;2028;51.346;12.396;2022-08-19T05:29:17;28.10;;;25.70;;
4027;SDS011;2028;51.346;12.396;2022-08-19T05:31:44;31.87;;;28.97;;
4027;SDS011;2028;51.346;12.396;2022-08-19T05:34:11;28.80;;;26.33;;
4027;SDS011;2028;51.346;12.396;2022-08-19T05:36:39;31.83;;;29.13;;
4027;SDS011;2028;51.346;12.396;2022-08-19T05:39:06;31.20;;;28.30;;
4027;SDS011;2028;51.346;12.396;2022-08-19T05:41:33;32.00;;;29.20;;
4027;SDS011;2028;51.346;12.396;2022-08-19T05:46:38;37.20;;;33.70;;
4027;SDS011;2028;51.346;12.396;2022-08-19T05:49:04;36.53;;;32.97;;
4027;SDS011;2028;51.346;12.396;2022-08-19T05:51:31;37.33;;;33.83;;
4027;SDS011;2028;51.346;12.396;2022-08-19T05:53:59;33.77;;;30.77;;
4027;SDS011;2028;51.346;12.396;2022-08-19T05:56:26;36.87;;;33.53;;
4027;SDS011;2028;51.346;12.396;2022-08-19T05:58:53;37.23;;;33.63;;
4027;SDS011;2028;51.346;12.396;2022-08-19T06:01:21;35.50;;;32.13;;
4027;SDS011;2028;51.346;12.396;2022-08-19T06:03:49;34.23;;;31.30;;
4027;SDS011;2028;51.346;12.396;2022-08-19T06:06:16;36.83;;;33.17;;
4027;SDS011;2028;51.346;12.396;2022-08-19T06:08:43;32.87;;;29.93;;
4027;SDS011;2028;51.346;12.396;2022-08-19T06:13:01;35.43;;;32.33;;
4027;SDS011;2028;51.346;12.396;2022-08-19T06:15:28;34.27;;;31.20;;
4027;SDS011;2028;51.346;12.396;2022-08-19T06:17:54;36.67;;;33.33;;
4027;SDS011;2028;51.346;12.396;2022-08-19T06:20:21;34.63;;;31.53;;
4027;SDS011;2028;51.346;12.396;2022-08-19T06:22:48;42.30;;;38.20;;
4027;SDS011;2028;51.346;12.396;2022-08-19T06:25:17;36.00;;;32.80;;
4027;SDS011;2028;51.346;12.396;2022-08-19T06:27:43;35.50;;;32.30;;
4027;SDS011;2028;51.346;12.396;2022-08-19T06:30:10;36.67;;;33.40;;
4027;SDS011;2028;51.346;12.396;2022-08-19T06:32:37;35.63;;;32.43;;
4027;SDS011;2028;51.346;12.396;2022-08-19T06:35:04;36.70;;;33.27;;
4027;SDS011;2028;51.346;12.396;2022-08-19T06:37:31;36.37;;;32.97;;
4027;SDS011;2028;51.346;12.396;2022-08-19T06:39:57;37.07;;;33.67;;
4027;SDS011;2028;51.346;12.396;2022-08-19T06:42:24;36.23;;;32.70;;
4027;SDS011;2028;51.346;12.396;2022-08-19T06:44:50;35.80;;;32.57;;
4027;SDS011;2028;51.346;12.396;2022-08-19T06:47:18;36.23;;;32.87;;
4027;SDS011;2028;51.346;12.396;2022-08-19T06:49:45;37.13;;;33.30;;
4027;SDS011;2028;51.346;12.396;2022-08-19T06:52:12;33.83;;;30.73;;
4027;SDS011;2028;51.346;12.396;2022-08-19T06:54:40;35.70;;;32.30;;
4027;SDS011;2028;51.346;12.396;2022-08-19T06:57:10;38.37;;;34.67;;
4027;SDS011;2028;51.346;12.396;2022-08-19T06:59:40;36.60;;;33.03;;
4027;SDS011;2028;51.346;12.396;2022-08-19T07:02:06;35.97;;;32.57;;
4027;SDS011;2028;51.346;12.396;2022-08-19T07:04:34;34.47;;;31.30;;
4027;SDS011;2028;51.346;12.396;2022-08-19T07:07:09;34.97;;;31.77;;
4027;SDS011;2028;51.346;12.396;2022-08-19T07:09:37;36.30;;;32.80;;
4027;SDS011;2028;51.346;12.396;2022-08-19T07:12:04;37.03;;;33.23;;
4027;SDS011;2028;51.346;12.396;2022-08-19T07:17:23;36.20;;;32.83;;
4027;SDS011;2028;51.346;12.396;2022-08-19T07:19:49;35.43;;;31.70;;
4027;SDS011;2028;51.346;12.396;2022-08-19T07:22:16;36.03;;;32.43;;
4027;SDS011;2028;51.346;12.396;2022-08-19T07:24:45;35.47;;;31.73;;
4027;SDS011;2028;51.346;12.396;2022-08-19T07:27:13;34.53;;;31.07;;
4027;SDS011;2028;51.346;12.396;2022-08-19T07:29:39;33.10;;;29.67;;
4027;SDS011;2028;51.346;12.396;2022-08-19T07:32:06;36.00;;;32.13;;
4027;SDS011;2028;51.346;12.396;2022-08-19T07:35:19;33.43;;;30.33;;
4027;SDS011;2028;51.346;12.396;2022-08-19T07:37:45;35.03;;;31.37;;
4027;SDS011;2028;51.346;12.396;2022-08-19T07:40:12;33.83;;;30.47;;
4027;SDS011;2028;51.346;12.396;2022-08-19T07:42:38;32.50;;;29.30;;
4027;SDS011;2028;51.346;12.396;2022-08-19T07:45:05;34.27;;;30.90;;
4027;SDS011;2028;51.346;12.396;2022-08-19T07:47:31;33.37;;;30.23;;
4027;SDS011;2028;51.346;12.396;2022-08-19T07:49:58;35.13;;;31.53;;
4027;SDS011;2028;51.346;12.396;2022-08-19T07:52:24;34.97;;;30.03;;
4027;SDS011;2028;51.346;12.396;2022-08-19T07:54:50;33.50;;;30.30;;
4027;SDS011;2028;51.346;12.396;2022-08-19T07:57:16;34.60;;;31.17;;
4027;SDS011;2028;51.346;12.396;2022-08-19T07:59:44;32.20;;;29.00;;
4027;SDS011;2028;51.346;12.396;2022-08-19T08:02:10;32.00;;;28.80;;
4027;SDS011;2028;51.346;12.396;2022-08-19T08:04:37;32.67;;;29.07;;
4027;SDS011;2028;51.346;12.396;2022-08-19T08:07:22;32.80;;;29.67;;
4027;SDS011;2028;51.346;12.396;2022-08-19T08:10:07;32.57;;;29.33;;
4027;SDS011;2028;51.346;12.396;2022-08-19T08:12:35;34.40;;;31.00;;
4027;SDS011;2028;51.346;12.396;2022-08-19T08:15:06;30.50;;;27.93;;
4027;SDS011;2028;51.346;12.396;2022-08-19T08:17:33;31.00;;;27.80;;
4027;SDS011;2028;51.346;12.396;2022-08-19T08:20:03;31.13;;;27.93;;
4027;SDS011;2028;51.346;12.396;2022-08-19T08:22:32;30.20;;;27.33;;
4027;SDS011;2028;51.346;12.396;2022-08-19T08:25:19;29.33;;;26.57;;
4027;SDS011;2028;51.346;12.396;2022-08-19T08:27:48;29.50;;;26.73;;
4027;SDS011;2028;51.346;12.396;2022-08-19T08:30:22;32.27;;;28.90;;
4027;SDS011;2028;51.346;12.396;2022-08-19T08:32:49;31.33;;;28.43;;
4027;SDS011;2028;51.346;12.396;2022-08-19T08:35:16;32.80;;;29.70;;
4027;SDS011;2028;51.346;12.396;2022-08-19T08:37:45;32.87;;;29.67;;
4027;SDS011;2028;51.346;12.396;2022-08-19T08:42:44;30.40;;;27.57;;
4027;SDS011;2028;51.346;12.396;2022-08-19T08:45:30;29.60;;;26.90;;
4027;SDS011;2028;51.346;12.396;2022-08-19T08:47:58;29.87;;;27.07;;
4027;SDS011;2028;51.346;12.396;2022-08-19T08:50:35;27.47;;;24.87;;
4027;SDS011;2028;51.346;12.396;2022-08-19T08:53:04;26.90;;;24.50;;
4027;SDS011;2028;51.346;12.396;2022-08-19T08:55:31;27.80;;;25.10;;
4027;SDS011;2028;51.346;12.396;2022-08-19T08:58:03;28.70;;;26.00;;
4027;SDS011;2028;51.346;12.396;2022-08-19T09:00:37;28.47;;;25.93;;
4027;SDS011;2028;51.346;12.396;2022-08-19T09:03:06;28.03;;;25.37;;
4027;SDS011;2028;51.346;12.396;2022-08-19T09:08:18;28.63;;;25.80;;
4027;SDS011;2028;51.346;12.396;2022-08-19T09:10:49;26.87;;;24.37;;
4027;SDS011;2028;51.346;12.396;2022-08-19T09:13:42;26.57;;;23.97;;
4027;SDS011;2028;51.346;12.396;2022-08-19T09:16:28;25.27;;;22.57;;
4027;SDS011;2028;51.346;12.396;2022-08-19T09:19:03;25.83;;;23.13;;
4027;SDS011;2028;51.346;12.396;2022-08-19T09:21:30;26.23;;;23.63;;
4027;SDS011;2028;51.346;12.396;2022-08-19T09:23:57;27.20;;;24.40;;
4027;SDS011;2028;51.346;12.396;2022-08-19T09:26:24;28.57;;;24.33;;
4027;SDS011;2028;51.346;12.396;2022-08-19T09:28:51;26.20;;;23.47;;
4027;SDS011;2028;51.346;12.396;2022-08-19T09:31:20;26.93;;;24.17;;
4027;SDS011;2028;51.346;12.396;2022-08-19T09:33:47;26.60;;;24.13;;
4027;SDS011;2028;51.346;12.396;2022-08-19T09:36:14;26.43;;;23.73;;
4027;SDS011;2028;51.346;12.396;2022-08-19T09:38:41;27.83;;;24.53;;
4027;SDS011;2028;51.346;12.396;2022-08-19T09:41:09;28.93;;;25.73;;
4027;SDS011;2028;51.346;12.396;2022-08-19T09:43:37;27.27;;;24.50;;
4027;SDS011;2028;51.346;12.396;2022-08-19T09:46:04;26.60;;;24.10;;
4027;SDS011;2028;51.346;12.396;2022-08-19T09:48:32;27.10;;;24.43;;
4027;SDS011;2028;51.346;12.396;2022-08-19T09:51:05;30.10;;;26.93;;
4027;SDS011;2028;51.346;12.396;2022-08-19T09:53:36;28.63;;;25.83;;
4027;SDS011;2028;51.346;12.396;2022-08-19T09:56:40;27.30;;;24.57;;
4027;SDS011;2028;51.346;12.396;2022-08-19T09:59:06;30.60;;;27.73;;
4027;SDS011;2028;51.346;12.396;2022-08-19T10:03:34;29.43;;;26.43;;
4027;SDS011;2028;51.346;12.396;2022-08-19T10:06:02;26.27;;;23.83;;
4027;SDS011;2028;51.346;12.396;2022-08-19T10:08:30;27.70;;;24.90;;
4027;SDS011;2028;51.346;12.396;2022-08-19T10:10:57;27.43;;;24.73;;
4027;SDS011;2028;51.346;12.396;2022-08-19T10:13:24;24.53;;;22.27;;
4027;SDS011;2028;51.346;12.396;2022-08-19T10:15:52;25.43;;;23.07;;
4027;SDS011;2028;51.346;12.396;2022-08-19T10:18:19;24.57;;;22.27;;
4027;SDS011;2028;51.346;12.396;2022-08-19T10:20:47;24.40;;;22.10;;
4027;SDS011;2028;51.346;12.396;2022-08-19T10:23:14;26.97;;;23.90;;
4027;SDS011;2028;51.346;12.396;2022-08-19T10:25:40;21.47;;;19.37;;
4027;SDS011;2028;51.346;12.396;2022-08-19T10:28:08;21.33;;;19.30;;
4027;SDS011;2028;51.346;12.396;2022-08-19T10:30:38;21.40;;;19.47;;
4027;SDS011;2028;51.346;12.396;2022-08-19T10:33:04;20.80;;;18.80;;
4027;SDS011;2028;51.346;12.396;2022-08-19T10:35:31;21.53;;;19.53;;
4027;SDS011;2028;51.346;12.396;2022-08-19T10:37:57;20.93;;;19.07;;
4027;SDS011;2028;51.346;12.396;2022-08-19T10:40:24;19.20;;;17.50;;
4027;SDS011;2028;51.346;12.396;2022-08-19T10:42:51;19.77;;;17.87;;
4027;SDS011;2028;51.346;12.396;2022-08-19T10:45:18;21.23;;;19.23;;
4027;SDS011;2028;51.346;12.396;2022-08-19T10:47:47;19.33;;;17.43;;
4027;SDS011;2028;51.346;12.396;2022-08-19T10:50:13;18.70;;;16.83;;
4027;SDS011;2028;51.346;12.396;2022-08-19T10:53:03;19.27;;;17.40;;
4027;SDS011;2028;51.346;12.396;2022-08-19T10:55:29;18.40;;;16.67;;
4027;SDS011;2028;51.346;12.396;2022-08-19T10:58:16;18.90;;;17.10;;
4027;SDS011;2028;51.346;12.396;2022-08-19T11:00:51;21.23;;;18.60;;
4027;SDS011;2028;51.346;12.396;2022-08-19T11:03:22;19.20;;;17.27;;
4027;SDS011;2028;51.346;12.396;2022-08-19T11:06:08;18.13;;;16.17;;
4027;SDS011;2028;51.346;12.396;2022-08-19T11:08:35;18.30;;;16.50;;
4027;SDS011;2028;51.346;12.396;2022-08-19T11:11:03;17.87;;;16.13;;
4027;SDS011;2028;51.346;12.396;2022-08-19T11:13:30;22.93;;;16.30;;
4027;SDS011;2028;51.346;12.396;2022-08-19T11:15:59;17.27;;;15.60;;
4027;SDS011;2028;51.346;12.396;2022-08-19T11:18:26;19.73;;;17.47;;
4027;SDS011;2028;51.346;12.396;2022-08-19T11:20:52;19.80;;;16.77;;
4027;SDS011;2028;51.346;12.396;2022-08-19T11:23:19;19.93;;;17.13;;
4027;SDS011;2028;51.346;12.396;2022-08-19T11:25:45;17.60;;;15.47;;
4027;SDS011;2028;51.346;12.396;2022-08-19T11:28:12;21.17;;;18.87;;
4027;SDS011;2028;51.346;12.396;2022-08-19T11:30:39;19.80;;;16.67;;
4027;SDS011;2028;51.346;12.396;2022-08-19T11:33:05;18.10;;;16.20;;
4027;SDS011;2028;51.346;12.396;2022-08-19T11:35:31;18.93;;;14.57;;
4027;SDS011;2028;51.346;12.396;2022-08-19T11:37:58;14.93;;;13.27;;
4027;SDS011;2028;51.346;12.396;2022-08-19T11:40:27;18.00;;;15.07;;
4027;SDS011;2028;51.346;12.396;2022-08-19T11:42:54;14.47;;;11.87;;
4027;SDS011;2028;51.346;12.396;2022-08-19T11:45:20;15.23;;;13.30;;
4027;SDS011;2028;51.346;12.396;2022-08-19T11:47:46;14.23;;;13.00;;
4027;SDS011;2028;51.346;12.396;2022-08-19T11:50:13;14.00;;;12.60;;
4027;SDS011;2028;51.346;12.396;2022-08-19T11:52:40;13.20;;;11.90;;
4027;SDS011;2028;51.346;12.396;2022-08-19T11:55:07;13.77;;;12.40;;
4027;SDS011;2028;51.346;12.396;2022-08-19T11:57:33;13.57;;;12.13;;
4027;SDS011;2028;51.346;12.396;2022-08-19T11:59:59;13.30;;;11.97;;
4027;SDS011;2028;51.346;12.396;2022-08-19T12:02:27;14.00;;;12.53;;
4027;SDS011;2028;51.346;12.396;2022-08-19T12:04:53;13.97;;;12.53;;
4027;SDS011;2028;51.346;12.396;2022-08-19T12:07:19;13.93;;;12.47;;
4027;SDS011;2028;51.346;12.396;2022-08-19T12:09:46;14.63;;;12.20;;
4027;SDS011;2028;51.346;12.396;2022-08-19T12:12:12;13.67;;;12.37;;
4027;SDS011;2028;51.346;12.396;2022-08-19T12:14:39;13.43;;;12.17;;
4027;SDS011;2028;51.346;12.396;2022-08-19T12:17:05;13.83;;;12.53;;
4027;SDS011;2028;51.346;12.396;2022-08-19T12:19:32;13.60;;;12.37;;
4027;SDS011;2028;51.346;12.396;2022-08-19T12:21:59;13.70;;;12.50;;
4027;SDS011;2028;51.346;12.396;2022-08-19T12:24:29;16.77;;;15.17;;
4027;SDS011;2028;51.346;12.396;2022-08-19T12:26:57;14.93;;;13.43;;
4027;SDS011;2028;51.346;12.396;2022-08-19T12:29:23;13.40;;;11.80;;
4027;SDS011;2028;51.346;12.396;2022-08-19T12:31:53;13.33;;;12.23;;
4027;SDS011;2028;51.346;12.396;2022-08-19T12:34:25;14.80;;;13.37;;
4027;SDS011;2028;51.346;12.396;2022-08-19T12:36:55;12.97;;;11.80;;
4027;SDS011;2028;51.346;12.396;2022-08-19T12:39:22;13.10;;;11.80;;
4027;SDS011;2028;51.346;12.396;2022-08-19T12:41:49;14.07;;;11.60;;
4027;SDS011;2028;51.346;12.396;2022-08-19T12:44:16;18.50;;;16.70;;
4027;SDS011;2028;51.346;12.396;2022-08-19T12:46:43;14.63;;;12.60;;
4027;SDS011;2028;51.346;12.396;2022-08-19T12:49:09;13.83;;;12.43;;
4027;SDS011;2028;51.346;12.396;2022-08-19T12:51:36;14.13;;;12.83;;
4027;SDS011;2028;51.346;12.396;2022-08-19T12:54:02;14.40;;;12.90;;
4027;SDS011;2028;51.346;12.396;2022-08-19T12:56:28;16.30;;;14.63;;
4027;SDS011;2028;51.346;12.396;2022-08-19T12:58:55;15.20;;;13.40;;
4027;SDS011;2028;51.346;12.396;2022-08-19T13:01:21;14.70;;;12.83;;
4027;SDS011;2028;51.346;12.396;2022-08-19T13:03:47;14.57;;;13.27;;
4027;SDS011;2028;51.346;12.396;2022-08-19T13:06:14;13.90;;;12.60;;
4027;SDS011;2028;51.346;12.396;2022-08-19T13:08:41;13.97;;;12.67;;
4027;SDS011;2028;51.346;12.396;2022-08-19T13:11:17;14.73;;;12.07;;
4027;SDS011;2028;51.346;12.396;2022-08-19T13:13:44;15.10;;;13.80;;
4027;SDS011;2028;51.346;12.396;2022-08-19T13:16:11;14.87;;;13.37;;
4027;SDS011;2028;51.346;12.396;2022-08-19T13:18:38;17.03;;;14.47;;
4027;SDS011;2028;51.346;12.396;2022-08-19T13:21:05;13.03;;;11.83;;
4027;SDS011;2028;51.346;12.396;2022-08-19T13:23:33;15.60;;;13.97;;
4027;SDS011;2028;51.346;12.396;2022-08-19T13:26:05;12.30;;;11.23;;
4027;SDS011;2028;51.346;12.396;2022-08-19T13:28:32;14.60;;;13.30;;
4027;SDS011;2028;51.346;12.396;2022-08-19T13:31:18;16.27;;;14.57;;
4027;SDS011;2028;51.346;12.396;2022-08-19T13:34:04;14.90;;;13.60;;
4027;SDS011;2028;51.346;12.396;2022-08-19T13:36:34;15.03;;;13.60;;
4027;SDS011;2028;51.346;12.396;2022-08-19T13:39:00;16.83;;;15.23;;
4027;SDS011;2028;51.346;12.396;2022-08-19T13:41:27;14.93;;;13.53;;
4027;SDS011;2028;51.346;12.396;2022-08-19T13:43:53;14.10;;;12.67;;
4027;SDS011;2028;51.346;12.396;2022-08-19T13:46:20;15.43;;;13.90;;
4027;SDS011;2028;51.346;12.396;2022-08-19T13:48:46;14.77;;;13.40;;
4027;SDS011;2028;51.346;12.396;2022-08-19T13:51:14;13.80;;;12.57;;
4027;SDS011;2028;51.346;12.396;2022-08-19T13:53:42;14.07;;;12.60;;
4027;SDS011;2028;51.346;12.396;2022-08-19T13:56:10;14.27;;;12.77;;
4027;SDS011;2028;51.346;12.396;2022-08-19T13:58:36;13.40;;;12.10;;
4027;SDS011;2028;51.346;12.396;2022-08-19T14:01:04;12.50;;;11.40;;
4027;SDS011;2028;51.346;12.396;2022-08-19T14:03:31;14.33;;;13.03;;
4027;SDS011;2028;51.346;12.396;2022-08-19T14:05:57;12.50;;;11.40;;
4027;SDS011;2028;51.346;12.396;2022-08-19T14:08:26;15.03;;;13.60;;
4027;SDS011;2028;51.346;12.396;2022-08-19T14:10:56;16.07;;;14.67;;
4027;SDS011;2028;51.346;12.396;2022-08-19T14:13:23;15.10;;;13.60;;
4027;SDS011;2028;51.346;12.396;2022-08-19T14:15:49;14.97;;;13.67;;
4027;SDS011;2028;51.346;12.396;2022-08-19T14:18:19;15.17;;;13.77;;
4027;SDS011;2028;51.346;12.396;2022-08-19T14:20:46;14.67;;;13.33;;
4027;SDS011;2028;51.346;12.396;2022-08-19T14:23:12;12.33;;;11.33;;
4027;SDS011;2028;51.346;12.396;2022-08-19T14:25:39;13.73;;;12.50;;
4027;SDS011;2028;51.346;12.396;2022-08-19T14:28:05;14.50;;;13.10;;
4027;SDS011;2028;51.346;12.396;2022-08-19T14:30:34;13.40;;;12.17;;
4027;SDS011;2028;51.346;12.396;2022-08-19T14:35:24;13.70;;;12.43;;
4027;SDS011;2028;51.346;12.396;2022-08-19T14:37:52;15.57;;;14.13;;
4027;SDS011;2028;51.346;12.396;2022-08-19T14:40:21;15.43;;;13.83;;
4027;SDS011;2028;51.346;12.396;2022-08-19T14:42:51;15.17;;;13.67;;
4027;SDS011;2028;51.346;12.396;2022-08-19T14:45:20;14.03;;;12.73;;
4027;SDS011;2028;51.346;12.396;2022-08-19T14:47:46;12.63;;;11.53;;
4027;SDS011;2028;51.346;12.396;2022-08-19T14:50:12;11.80;;;10.77;;
4027;SDS011;2028;51.346;12.396;2022-08-19T14:52:39;10.70;;;9.70;;
4027;SDS011;2028;51.346;12.396;2022-08-19T14:55:05;10.33;;;9.33;;
4027;SDS011;2028;51.346;12.396;2022-08-19T14:57:31;10.53;;;9.60;;
4027;SDS011;2028;51.346;12.396;2022-08-19T14:59:58;10.93;;;9.97;;
4027;SDS011;2028;51.346;12.396;2022-08-19T15:02:25;11.40;;;10.40;;
4027;SDS011;2028;51.346;12.396;2022-08-19T15:04:51;11.73;;;10.63;;